sensor_id;sensor_type;location;lat;lon;timestamp;P1;durP1;ratioP1;P2;durP2;ratioP2
41643;SDS011;44236;48.098;11.582;2023-10-09T00:02:09;7.57;;;4.00;;
41643;SDS011;44236;48.098;11.582;2023-10-09T00:04:39;7.22;;;3.47;;
41643;SDS011;44236;48.098;11.582;2023-10-09T00:07:16;6.93;;;3.72;;
41643;SDS011;44236;48.098;11.582;2023-10-09T00:09:42;7.97;;;4.45;;
41643;SDS011;44236;48.098;11.582;2023-10-09T00:12:14;8.93;;;3.80;;
41643;SDS011;44236;48.098;11.582;2023-10-09T00:14:41;9.43;;;3.65;;
41643;SDS011;44236;48.098;11.582;2023-10-09T00:17:12;7.72;;;4.00;;
41643;SDS011;44236;48.098;11.582;2023-10-09T00:19:47;11.55;;;3.83;;
41643;SDS011;44236;48.098;11.582;2023-10-09T00:22:14;7.20;;;3.70;;
41643;SDS011;44236;48.098;11.582;2023-10-09T00:24:49;7.22;;;3.63;;
41643;SDS011;44236;48.098;11.582;2023-10-09T00:27:16;7.68;;;4.03;;
41643;SDS011;44236;48.098;11.582;2023-10-09T00:29:46;7.25;;;3.97;;
41643;SDS011;44236;48.098;11.582;2023-10-09T00:32:13;9.88;;;4.25;;
41643;SDS011;44236;48.098;11.582;2023-10-09T00:34:51;9.63;;;3.67;;
41643;SDS011;44236;48.098;11.582;2023-10-09T00:37:18;8.10;;;3.55;;
41643;SDS011;44236;48.098;11.582;2023-10-09T00:39:48;10.23;;;4.30;;
41643;SDS011;44236;48.098;11.582;2023-10-09T00:42:20;8.88;;;3.70;;
41643;SDS011;44236;48.098;11.582;2023-10-09T00:44:53;9.45;;;3.60;;
41643;SDS011;44236;48.098;11.582;2023-10-09T00:47:19;8.82;;;4.82;;
41643;SDS011;44236;48.098;11.582;2023-10-09T00:49:52;12.75;;;4.03;;
41643;SDS011;44236;48.098;11.582;2023-10-09T00:52:32;8.50;;;4.70;;
41643;SDS011;44236;48.098;11.582;2023-10-09T00:55:08;13.60;;;4.82;;
41643;SDS011;44236;48.098;11.582;2023-10-09T00:57:42;10.20;;;4.68;;
41643;SDS011;44236;48.098;11.582;2023-10-09T01:00:22;9.80;;;5.22;;
41643;SDS011;44236;48.098;11.582;2023-10-09T01:03:01;10.55;;;4.72;;
41643;SDS011;44236;48.098;11.582;2023-10-09T01:05:57;10.32;;;4.20;;
41643;SDS011;44236;48.098;11.582;2023-10-09T01:08:37;8.18;;;4.20;;
41643;SDS011;44236;48.098;11.582;2023-10-09T01:11:04;11.25;;;4.50;;
41643;SDS011;44236;48.098;11.582;2023-10-09T01:13:43;9.90;;;4.78;;
41643;SDS011;44236;48.098;11.582;2023-10-09T01:16:13;11.25;;;4.15;;
41643;SDS011;44236;48.098;11.582;2023-10-09T01:18:45;8.93;;;4.00;;
41643;SDS011;44236;48.098;11.582;2023-10-09T01:21:14;7.43;;;4.07;;
41643;SDS011;44236;48.098;11.582;2023-10-09T01:23:45;11.57;;;5.68;;
41643;SDS011;44236;48.098;11.582;2023-10-09T01:29:05;11.63;;;4.32;;
41643;SDS011;44236;48.098;11.582;2023-10-09T01:31:35;10.30;;;4.53;;
41643;SDS011;44236;48.098;11.582;2023-10-09T01:34:03;9.95;;;4.78;;
41643;SDS011;44236;48.098;11.582;2023-10-09T01:39:04;10.02;;;4.28;;
41643;SDS011;44236;48.098;11.582;2023-10-09T01:41:48;11.70;;;5.70;;
41643;SDS011;44236;48.098;11.582;2023-10-09T01:44:24;8.95;;;4.50;;
41643;SDS011;44236;48.098;11.582;2023-10-09T01:47:02;7.47;;;3.90;;
41643;SDS011;44236;48.098;11.582;2023-10-09T01:49:35;10.85;;;4.15;;
41643;SDS011;44236;48.098;11.582;2023-10-09T01:52:06;13.02;;;5.47;;
41643;SDS011;44236;48.098;11.582;2023-10-09T01:54:37;9.73;;;4.83;;
41643;SDS011;44236;48.098;11.582;2023-10-09T01:57:05;10.20;;;4.30;;
41643;SDS011;44236;48.098;11.582;2023-10-09T01:59:34;14.82;;;4.47;;
41643;SDS011;44236;48.098;11.582;2023-10-09T02:02:03;9.48;;;4.22;;
41643;SDS011;44236;48.098;11.582;2023-10-09T02:04:38;9.93;;;4.55;;
41643;SDS011;44236;48.098;11.582;2023-10-09T02:07:05;10.73;;;4.72;;
41643;SDS011;44236;48.098;11.582;2023-10-09T02:09:34;8.32;;;4.28;;
41643;SDS011;44236;48.098;11.582;2023-10-09T02:12:00;9.32;;;4.32;;
41643;SDS011;44236;48.098;11.582;2023-10-09T02:14:27;9.77;;;4.30;;
41643;SDS011;44236;48.098;11.582;2023-10-09T02:16:53;11.98;;;4.50;;
41643;SDS011;44236;48.098;11.582;2023-10-09T02:19:34;12.13;;;4.40;;
41643;SDS011;44236;48.098;11.582;2023-10-09T02:22:01;11.43;;;5.18;;
41643;SDS011;44236;48.098;11.582;2023-10-09T02:24:38;10.48;;;4.18;;
41643;SDS011;44236;48.098;11.582;2023-10-09T02:27:14;9.25;;;4.20;;
41643;SDS011;44236;48.098;11.582;2023-10-09T02:30:10;9.07;;;4.95;;
41643;SDS011;44236;48.098;11.582;2023-10-09T02:32:45;9.68;;;4.72;;
41643;SDS011;44236;48.098;11.582;2023-10-09T02:35:17;12.10;;;4.93;;
41643;SDS011;44236;48.098;11.582;2023-10-09T02:38:01;9.50;;;4.97;;
41643;SDS011;44236;48.098;11.582;2023-10-09T02:40:31;8.80;;;4.25;;
41643;SDS011;44236;48.098;11.582;2023-10-09T02:43:05;10.02;;;4.82;;
41643;SDS011;44236;48.098;11.582;2023-10-09T02:45:31;9.95;;;4.35;;
41643;SDS011;44236;48.098;11.582;2023-10-09T02:48:02;12.38;;;4.65;;
41643;SDS011;44236;48.098;11.582;2023-10-09T02:50:35;7.25;;;4.05;;
41643;SDS011;44236;48.098;11.582;2023-10-09T02:53:03;9.10;;;4.10;;
41643;SDS011;44236;48.098;11.582;2023-10-09T02:55:34;10.82;;;4.32;;
41643;SDS011;44236;48.098;11.582;2023-10-09T02:58:03;7.47;;;3.83;;
41643;SDS011;44236;48.098;11.582;2023-10-09T03:00:39;7.25;;;4.25;;
41643;SDS011;44236;48.098;11.582;2023-10-09T03:03:09;9.50;;;4.15;;
41643;SDS011;44236;48.098;11.582;2023-10-09T03:05:35;7.82;;;3.85;;
41643;SDS011;44236;48.098;11.582;2023-10-09T03:08:07;9.00;;;3.75;;
41643;SDS011;44236;48.098;11.582;2023-10-09T03:10:33;7.68;;;4.68;;
41643;SDS011;44236;48.098;11.582;2023-10-09T03:12:59;7.22;;;3.95;;
41643;SDS011;44236;48.098;11.582;2023-10-09T03:15:30;7.68;;;4.07;;
41643;SDS011;44236;48.098;11.582;2023-10-09T03:18:00;7.95;;;4.47;;
41643;SDS011;44236;48.098;11.582;2023-10-09T03:20:30;9.15;;;3.95;;
41643;SDS011;44236;48.098;11.582;2023-10-09T03:22:56;13.05;;;4.38;;
41643;SDS011;44236;48.098;11.582;2023-10-09T03:25:22;8.93;;;4.63;;
41643;SDS011;44236;48.098;11.582;2023-10-09T03:27:50;11.93;;;3.90;;
41643;SDS011;44236;48.098;11.582;2023-10-09T03:30:17;11.75;;;4.47;;
41643;SDS011;44236;48.098;11.582;2023-10-09T03:32:47;8.88;;;4.80;;
41643;SDS011;44236;48.098;11.582;2023-10-09T03:35:16;11.50;;;4.55;;
41643;SDS011;44236;48.098;11.582;2023-10-09T03:38:01;8.38;;;4.28;;
41643;SDS011;44236;48.098;11.582;2023-10-09T03:40:44;9.07;;;4.32;;
41643;SDS011;44236;48.098;11.582;2023-10-09T03:43:13;8.68;;;4.03;;
41643;SDS011;44236;48.098;11.582;2023-10-09T03:45:39;8.52;;;4.47;;
41643;SDS011;44236;48.098;11.582;2023-10-09T03:48:17;10.23;;;4.10;;
41643;SDS011;44236;48.098;11.582;2023-10-09T03:50:50;7.25;;;3.83;;
41643;SDS011;44236;48.098;11.582;2023-10-09T03:53:32;9.25;;;4.22;;
41643;SDS011;44236;48.098;11.582;2023-10-09T03:56:01;9.05;;;4.57;;
41643;SDS011;44236;48.098;11.582;2023-10-09T03:58:30;11.13;;;5.18;;
41643;SDS011;44236;48.098;11.582;2023-10-09T04:00:58;9.98;;;4.57;;
41643;SDS011;44236;48.098;11.582;2023-10-09T04:03:24;9.60;;;4.60;;
41643;SDS011;44236;48.098;11.582;2023-10-09T04:05:50;7.97;;;3.97;;
41643;SDS011;44236;48.098;11.582;2023-10-09T04:08:18;9.10;;;4.15;;
41643;SDS011;44236;48.098;11.582;2023-10-09T04:10:55;10.73;;;4.45;;
41643;SDS011;44236;48.098;11.582;2023-10-09T04:13:26;11.80;;;5.03;;
41643;SDS011;44236;48.098;11.582;2023-10-09T04:15:58;9.18;;;4.50;;
41643;SDS011;44236;48.098;11.582;2023-10-09T04:18:28;9.00;;;4.47;;
41643;SDS011;44236;48.098;11.582;2023-10-09T04:20:58;9.40;;;4.18;;
41643;SDS011;44236;48.098;11.582;2023-10-09T04:23:43;10.13;;;4.45;;
41643;SDS011;44236;48.098;11.582;2023-10-09T04:26:33;12.50;;;5.70;;
41643;SDS011;44236;48.098;11.582;2023-10-09T04:29:00;8.63;;;4.15;;
41643;SDS011;44236;48.098;11.582;2023-10-09T04:31:27;9.23;;;4.32;;
41643;SDS011;44236;48.098;11.582;2023-10-09T04:33:57;12.73;;;4.32;;
41643;SDS011;44236;48.098;11.582;2023-10-09T04:36:42;10.63;;;3.83;;
41643;SDS011;44236;48.098;11.582;2023-10-09T04:39:23;7.90;;;3.50;;
41643;SDS011;44236;48.098;11.582;2023-10-09T04:41:54;10.25;;;4.18;;
41643;SDS011;44236;48.098;11.582;2023-10-09T04:44:40;9.05;;;4.45;;
41643;SDS011;44236;48.098;11.582;2023-10-09T04:47:25;7.57;;;3.28;;
41643;SDS011;44236;48.098;11.582;2023-10-09T04:50:00;8.32;;;3.63;;
41643;SDS011;44236;48.098;11.582;2023-10-09T04:52:58;8.30;;;4.00;;
41643;SDS011;44236;48.098;11.582;2023-10-09T04:55:39;6.85;;;3.55;;
41643;SDS011;44236;48.098;11.582;2023-10-09T04:58:09;8.98;;;4.03;;
41643;SDS011;44236;48.098;11.582;2023-10-09T05:00:43;10.13;;;4.28;;
41643;SDS011;44236;48.098;11.582;2023-10-09T05:03:12;12.18;;;5.65;;
41643;SDS011;44236;48.098;11.582;2023-10-09T05:05:50;7.68;;;3.60;;
41643;SDS011;44236;48.098;11.582;2023-10-09T05:08:23;7.93;;;4.07;;
41643;SDS011;44236;48.098;11.582;2023-10-09T05:10:53;6.70;;;3.80;;
41643;SDS011;44236;48.098;11.582;2023-10-09T05:13:40;11.27;;;4.68;;
41643;SDS011;44236;48.098;11.582;2023-10-09T05:16:10;10.93;;;4.63;;
41643;SDS011;44236;48.098;11.582;2023-10-09T05:18:52;8.43;;;3.90;;
41643;SDS011;44236;48.098;11.582;2023-10-09T05:21:25;8.95;;;3.83;;
41643;SDS011;44236;48.098;11.582;2023-10-09T05:23:56;10.77;;;4.38;;
41643;SDS011;44236;48.098;11.582;2023-10-09T05:26:41;7.07;;;4.13;;
41643;SDS011;44236;48.098;11.582;2023-10-09T05:29:17;7.80;;;3.78;;
41643;SDS011;44236;48.098;11.582;2023-10-09T05:32:02;9.07;;;3.00;;
41643;SDS011;44236;48.098;11.582;2023-10-09T05:34:43;6.97;;;2.50;;
41643;SDS011;44236;48.098;11.582;2023-10-09T05:37:26;6.82;;;2.75;;
41643;SDS011;44236;48.098;11.582;2023-10-09T05:39:59;5.50;;;2.50;;
41643;SDS011;44236;48.098;11.582;2023-10-09T05:45:17;6.28;;;2.50;;
41643;SDS011;44236;48.098;11.582;2023-10-09T05:47:53;8.50;;;2.65;;
41643;SDS011;44236;48.098;11.582;2023-10-09T05:50:21;4.63;;;1.92;;
41643;SDS011;44236;48.098;11.582;2023-10-09T05:52:48;4.13;;;1.83;;
41643;SDS011;44236;48.098;11.582;2023-10-09T05:55:17;5.82;;;2.47;;
41643;SDS011;44236;48.098;11.582;2023-10-09T05:57:49;10.13;;;3.20;;
41643;SDS011;44236;48.098;11.582;2023-10-09T06:00:34;7.28;;;2.67;;
41643;SDS011;44236;48.098;11.582;2023-10-09T06:03:18;8.57;;;3.15;;
41643;SDS011;44236;48.098;11.582;2023-10-09T06:05:51;5.93;;;2.03;;
41643;SDS011;44236;48.098;11.582;2023-10-09T06:08:26;9.13;;;3.35;;
41643;SDS011;44236;48.098;11.582;2023-10-09T06:11:15;8.25;;;2.78;;
41643;SDS011;44236;48.098;11.582;2023-10-09T06:13:59;6.60;;;3.47;;
41643;SDS011;44236;48.098;11.582;2023-10-09T06:16:38;7.38;;;3.90;;
41643;SDS011;44236;48.098;11.582;2023-10-09T06:19:25;8.02;;;3.13;;
41643;SDS011;44236;48.098;11.582;2023-10-09T06:21:55;7.95;;;2.85;;
41643;SDS011;44236;48.098;11.582;2023-10-09T06:24:40;10.30;;;4.18;;
41643;SDS011;44236;48.098;11.582;2023-10-09T06:27:07;8.65;;;3.80;;
41643;SDS011;44236;48.098;11.582;2023-10-09T06:29:57;18.15;;;5.00;;
41643;SDS011;44236;48.098;11.582;2023-10-09T06:32:55;21.60;;;7.38;;
41643;SDS011;44236;48.098;11.582;2023-10-09T06:35:44;30.60;;;8.57;;
41643;SDS011;44236;48.098;11.582;2023-10-09T06:38:19;30.85;;;8.70;;
41643;SDS011;44236;48.098;11.582;2023-10-09T06:40:51;23.45;;;8.02;;
41643;SDS011;44236;48.098;11.582;2023-10-09T06:43:17;15.48;;;7.75;;
41643;SDS011;44236;48.098;11.582;2023-10-09T06:45:46;7.80;;;3.30;;
41643;SDS011;44236;48.098;11.582;2023-10-09T06:48:19;14.40;;;5.18;;
41643;SDS011;44236;48.098;11.582;2023-10-09T06:54:02;10.68;;;4.70;;
41643;SDS011;44236;48.098;11.582;2023-10-09T06:56:31;10.20;;;4.80;;
41643;SDS011;44236;48.098;11.582;2023-10-09T06:58:57;11.68;;;5.25;;
41643;SDS011;44236;48.098;11.582;2023-10-09T07:01:40;13.82;;;4.60;;
41643;SDS011;44236;48.098;11.582;2023-10-09T07:04:11;11.90;;;4.47;;
41643;SDS011;44236;48.098;11.582;2023-10-09T07:06:50;9.48;;;4.47;;
41643;SDS011;44236;48.098;11.582;2023-10-09T07:11:45;13.05;;;3.58;;
41643;SDS011;44236;48.098;11.582;2023-10-09T07:16:56;6.38;;;3.55;;
41643;SDS011;44236;48.098;11.582;2023-10-09T07:19:23;13.50;;;4.05;;
41643;SDS011;44236;48.098;11.582;2023-10-09T07:22:10;8.93;;;3.05;;
41643;SDS011;44236;48.098;11.582;2023-10-09T07:27:21;6.43;;;3.00;;
41643;SDS011;44236;48.098;11.582;2023-10-09T07:33:01;8.00;;;2.90;;
41643;SDS011;44236;48.098;11.582;2023-10-09T07:35:31;5.78;;;2.58;;
41643;SDS011;44236;48.098;11.582;2023-10-09T07:38:18;6.80;;;2.90;;
41643;SDS011;44236;48.098;11.582;2023-10-09T07:40:47;7.65;;;2.80;;
41643;SDS011;44236;48.098;11.582;2023-10-09T07:43:24;6.85;;;2.17;;
41643;SDS011;44236;48.098;11.582;2023-10-09T07:45:53;5.97;;;2.17;;
41643;SDS011;44236;48.098;11.582;2023-10-09T07:48:22;5.95;;;3.03;;
41643;SDS011;44236;48.098;11.582;2023-10-09T07:50:51;7.97;;;3.15;;
41643;SDS011;44236;48.098;11.582;2023-10-09T07:53:22;8.63;;;2.87;;
41643;SDS011;44236;48.098;11.582;2023-10-09T07:55:54;4.43;;;2.40;;
41643;SDS011;44236;48.098;11.582;2023-10-09T07:58:23;9.00;;;3.25;;
41643;SDS011;44236;48.098;11.582;2023-10-09T08:00:53;6.60;;;2.67;;
41643;SDS011;44236;48.098;11.582;2023-10-09T08:03:26;7.55;;;2.83;;
41643;SDS011;44236;48.098;11.582;2023-10-09T08:05:57;4.05;;;2.15;;
41643;SDS011;44236;48.098;11.582;2023-10-09T08:08:43;3.97;;;2.10;;
41643;SDS011;44236;48.098;11.582;2023-10-09T08:11:29;6.43;;;2.00;;
41643;SDS011;44236;48.098;11.582;2023-10-09T08:14:05;5.63;;;2.40;;
41643;SDS011;44236;48.098;11.582;2023-10-09T08:16:52;4.28;;;2.10;;
41643;SDS011;44236;48.098;11.582;2023-10-09T08:19:37;11.05;;;3.33;;
41643;SDS011;44236;48.098;11.582;2023-10-09T08:22:18;3.58;;;1.52;;
41643;SDS011;44236;48.098;11.582;2023-10-09T08:24:55;7.15;;;2.80;;
41643;SDS011;44236;48.098;11.582;2023-10-09T08:27:25;5.68;;;1.70;;
41643;SDS011;44236;48.098;11.582;2023-10-09T08:29:58;3.67;;;1.35;;
41643;SDS011;44236;48.098;11.582;2023-10-09T08:32:42;3.92;;;1.65;;
41643;SDS011;44236;48.098;11.582;2023-10-09T08:35:26;5.10;;;1.85;;
41643;SDS011;44236;48.098;11.582;2023-10-09T08:40:39;3.65;;;2.00;;
41643;SDS011;44236;48.098;11.582;2023-10-09T08:45:35;4.32;;;2.03;;
41643;SDS011;44236;48.098;11.582;2023-10-09T08:48:06;4.28;;;1.48;;
41643;SDS011;44236;48.098;11.582;2023-10-09T08:50:33;6.28;;;1.73;;
41643;SDS011;44236;48.098;11.582;2023-10-09T08:53:01;3.08;;;1.55;;
41643;SDS011;44236;48.098;11.582;2023-10-09T08:55:28;6.18;;;2.03;;
41643;SDS011;44236;48.098;11.582;2023-10-09T08:57:54;6.07;;;1.98;;
41643;SDS011;44236;48.098;11.582;2023-10-09T09:00:22;6.65;;;1.83;;
41643;SDS011;44236;48.098;11.582;2023-10-09T09:02:58;3.72;;;1.65;;
41643;SDS011;44236;48.098;11.582;2023-10-09T09:05:25;5.00;;;1.83;;
41643;SDS011;44236;48.098;11.582;2023-10-09T09:07:54;4.03;;;1.67;;
41643;SDS011;44236;48.098;11.582;2023-10-09T09:10:30;5.20;;;1.95;;
41643;SDS011;44236;48.098;11.582;2023-10-09T09:13:14;4.78;;;2.35;;
41643;SDS011;44236;48.098;11.582;2023-10-09T09:15:46;5.30;;;2.35;;
41643;SDS011;44236;48.098;11.582;2023-10-09T09:18:12;2.75;;;1.30;;
41643;SDS011;44236;48.098;11.582;2023-10-09T09:20:42;4.50;;;2.15;;
41643;SDS011;44236;48.098;11.582;2023-10-09T09:23:11;3.60;;;1.67;;
41643;SDS011;44236;48.098;11.582;2023-10-09T09:25:44;5.10;;;1.98;;
41643;SDS011;44236;48.098;11.582;2023-10-09T09:28:12;4.40;;;1.98;;
41643;SDS011;44236;48.098;11.582;2023-10-09T09:30:44;4.65;;;2.03;;
41643;SDS011;44236;48.098;11.582;2023-10-09T09:36:04;15.63;;;2.88;;
41643;SDS011;44236;48.098;11.582;2023-10-09T09:38:32;10.02;;;2.95;;
41643;SDS011;44236;48.098;11.582;2023-10-09T09:41:07;14.07;;;3.33;;
41643;SDS011;44236;48.098;11.582;2023-10-09T09:43:34;12.95;;;3.45;;
41643;SDS011;44236;48.098;11.582;2023-10-09T09:46:02;15.60;;;3.72;;
41643;SDS011;44236;48.098;11.582;2023-10-09T09:48:33;20.45;;;4.03;;
41643;SDS011;44236;48.098;11.582;2023-10-09T09:53:33;19.70;;;4.88;;
41643;SDS011;44236;48.098;11.582;2023-10-09T09:55:59;28.45;;;4.57;;
41643;SDS011;44236;48.098;11.582;2023-10-09T09:58:28;20.52;;;3.85;;
41643;SDS011;44236;48.098;11.582;2023-10-09T10:01:09;21.15;;;4.68;;
41643;SDS011;44236;48.098;11.582;2023-10-09T10:03:54;14.45;;;3.38;;
41643;SDS011;44236;48.098;11.582;2023-10-09T10:06:39;20.80;;;3.90;;
41643;SDS011;44236;48.098;11.582;2023-10-09T10:09:08;16.05;;;4.18;;
41643;SDS011;44236;48.098;11.582;2023-10-09T10:11:44;16.90;;;3.17;;
41643;SDS011;44236;48.098;11.582;2023-10-09T10:14:10;29.25;;;4.85;;
41643;SDS011;44236;48.098;11.582;2023-10-09T10:17:02;23.80;;;5.25;;
41643;SDS011;44236;48.098;11.582;2023-10-09T10:20:04;20.15;;;4.05;;
41643;SDS011;44236;48.098;11.582;2023-10-09T10:22:29;18.92;;;4.85;;
41643;SDS011;44236;48.098;11.582;2023-10-09T10:24:55;21.30;;;3.60;;
41643;SDS011;44236;48.098;11.582;2023-10-09T10:27:24;17.50;;;5.38;;
41643;SDS011;44236;48.098;11.582;2023-10-09T10:35:16;18.05;;;4.32;;
41643;SDS011;44236;48.098;11.582;2023-10-09T10:37:57;21.88;;;4.47;;
41643;SDS011;44236;48.098;11.582;2023-10-09T10:40:32;19.55;;;4.50;;
41643;SDS011;44236;48.098;11.582;2023-10-09T10:43:06;24.77;;;3.97;;
41643;SDS011;44236;48.098;11.582;2023-10-09T10:45:38;21.92;;;4.78;;
41643;SDS011;44236;48.098;11.582;2023-10-09T10:48:10;21.92;;;4.30;;
41643;SDS011;44236;48.098;11.582;2023-10-09T10:51:02;25.10;;;4.07;;
41643;SDS011;44236;48.098;11.582;2023-10-09T10:53:31;16.17;;;4.20;;
41643;SDS011;44236;48.098;11.582;2023-10-09T10:56:12;22.73;;;4.47;;
41643;SDS011;44236;48.098;11.582;2023-10-09T10:58:41;31.85;;;5.93;;
41643;SDS011;44236;48.098;11.582;2023-10-09T11:01:19;18.67;;;3.83;;
41643;SDS011;44236;48.098;11.582;2023-10-09T11:03:48;19.17;;;3.97;;
41643;SDS011;44236;48.098;11.582;2023-10-09T11:06:26;19.45;;;4.10;;
41643;SDS011;44236;48.098;11.582;2023-10-09T11:09:09;18.00;;;3.65;;
41643;SDS011;44236;48.098;11.582;2023-10-09T11:11:46;24.35;;;4.03;;
41643;SDS011;44236;48.098;11.582;2023-10-09T11:14:14;23.98;;;4.68;;
41643;SDS011;44236;48.098;11.582;2023-10-09T11:16:41;22.13;;;4.75;;
41643;SDS011;44236;48.098;11.582;2023-10-09T11:19:14;19.50;;;3.58;;
41643;SDS011;44236;48.098;11.582;2023-10-09T11:21:56;18.73;;;3.53;;
41643;SDS011;44236;48.098;11.582;2023-10-09T11:24:32;25.15;;;4.97;;
41643;SDS011;44236;48.098;11.582;2023-10-09T11:27:02;18.27;;;3.80;;
41643;SDS011;44236;48.098;11.582;2023-10-09T11:29:35;20.30;;;4.80;;
41643;SDS011;44236;48.098;11.582;2023-10-09T11:32:17;21.02;;;4.95;;
41643;SDS011;44236;48.098;11.582;2023-10-09T11:37:17;18.30;;;4.80;;
41643;SDS011;44236;48.098;11.582;2023-10-09T11:40:03;25.65;;;4.50;;
41643;SDS011;44236;48.098;11.582;2023-10-09T11:42:46;23.65;;;4.25;;
41643;SDS011;44236;48.098;11.582;2023-10-09T11:45:24;18.92;;;3.20;;
41643;SDS011;44236;48.098;11.582;2023-10-09T11:48:17;23.05;;;4.25;;
41643;SDS011;44236;48.098;11.582;2023-10-09T11:50:52;29.92;;;4.68;;
41643;SDS011;44236;48.098;11.582;2023-10-09T11:53:42;29.27;;;5.88;;
41643;SDS011;44236;48.098;11.582;2023-10-09T11:56:10;23.73;;;4.68;;
41643;SDS011;44236;48.098;11.582;2023-10-09T11:58:41;22.80;;;5.57;;
41643;SDS011;44236;48.098;11.582;2023-10-09T12:01:13;29.77;;;6.05;;
41643;SDS011;44236;48.098;11.582;2023-10-09T12:03:45;16.35;;;4.68;;
41643;SDS011;44236;48.098;11.582;2023-10-09T12:06:14;21.52;;;5.63;;
41643;SDS011;44236;48.098;11.582;2023-10-09T12:08:47;29.52;;;6.85;;
41643;SDS011;44236;48.098;11.582;2023-10-09T12:11:13;28.50;;;5.60;;
41643;SDS011;44236;48.098;11.582;2023-10-09T12:13:53;21.35;;;5.13;;
41643;SDS011;44236;48.098;11.582;2023-10-09T12:16:22;32.83;;;5.13;;
41643;SDS011;44236;48.098;11.582;2023-10-09T12:18:53;25.45;;;4.95;;
41643;SDS011;44236;48.098;11.582;2023-10-09T12:21:20;37.63;;;6.03;;
41643;SDS011;44236;48.098;11.582;2023-10-09T12:23:46;19.80;;;5.50;;
41643;SDS011;44236;48.098;11.582;2023-10-09T12:26:13;27.70;;;5.63;;
41643;SDS011;44236;48.098;11.582;2023-10-09T12:28:42;23.67;;;4.75;;
41643;SDS011;44236;48.098;11.582;2023-10-09T12:31:12;34.05;;;6.28;;
41643;SDS011;44236;48.098;11.582;2023-10-09T12:33:45;18.08;;;4.10;;
41643;SDS011;44236;48.098;11.582;2023-10-09T12:36:14;23.20;;;5.57;;
41643;SDS011;44236;48.098;11.582;2023-10-09T12:38:45;19.90;;;4.85;;
41643;SDS011;44236;48.098;11.582;2023-10-09T12:41:15;20.85;;;4.88;;
41643;SDS011;44236;48.098;11.582;2023-10-09T12:43:51;16.20;;;5.32;;
41643;SDS011;44236;48.098;11.582;2023-10-09T12:46:18;17.83;;;5.45;;
41643;SDS011;44236;48.098;11.582;2023-10-09T12:48:48;34.53;;;7.18;;
41643;SDS011;44236;48.098;11.582;2023-10-09T12:51:22;20.40;;;7.07;;
41643;SDS011;44236;48.098;11.582;2023-10-09T12:53:54;22.65;;;5.50;;
41643;SDS011;44236;48.098;11.582;2023-10-09T12:56:23;27.05;;;6.80;;
41643;SDS011;44236;48.098;11.582;2023-10-09T12:58:58;15.68;;;4.93;;
41643;SDS011;44236;48.098;11.582;2023-10-09T13:01:26;15.50;;;4.88;;
41643;SDS011;44236;48.098;11.582;2023-10-09T13:03:57;21.47;;;6.10;;
41643;SDS011;44236;48.098;11.582;2023-10-09T13:06:25;12.13;;;5.30;;
41643;SDS011;44236;48.098;11.582;2023-10-09T13:08:51;22.35;;;6.22;;
41643;SDS011;44236;48.098;11.582;2023-10-09T13:11:19;21.75;;;6.13;;
41643;SDS011;44236;48.098;11.582;2023-10-09T13:13:45;18.17;;;5.93;;
41643;SDS011;44236;48.098;11.582;2023-10-09T13:16:20;17.73;;;4.82;;
41643;SDS011;44236;48.098;11.582;2023-10-09T13:18:52;14.75;;;5.30;;
41643;SDS011;44236;48.098;11.582;2023-10-09T13:21:23;12.68;;;4.60;;
41643;SDS011;44236;48.098;11.582;2023-10-09T13:23:57;18.77;;;4.93;;
41643;SDS011;44236;48.098;11.582;2023-10-09T13:26:25;14.68;;;4.22;;
41643;SDS011;44236;48.098;11.582;2023-10-09T13:28:55;20.42;;;7.18;;
41643;SDS011;44236;48.098;11.582;2023-10-09T13:31:21;15.98;;;4.43;;
41643;SDS011;44236;48.098;11.582;2023-10-09T13:33:52;18.88;;;6.22;;
41643;SDS011;44236;48.098;11.582;2023-10-09T13:36:24;16.27;;;3.92;;
41643;SDS011;44236;48.098;11.582;2023-10-09T13:39:01;15.75;;;4.22;;
41643;SDS011;44236;48.098;11.582;2023-10-09T13:41:48;10.27;;;3.90;;
41643;SDS011;44236;48.098;11.582;2023-10-09T13:44:15;13.82;;;5.18;;
41643;SDS011;44236;48.098;11.582;2023-10-09T13:46:41;15.02;;;5.13;;
41643;SDS011;44236;48.098;11.582;2023-10-09T13:49:07;11.55;;;4.25;;
41643;SDS011;44236;48.098;11.582;2023-10-09T13:51:37;14.88;;;4.40;;
41643;SDS011;44236;48.098;11.582;2023-10-09T13:54:08;14.75;;;4.57;;
41643;SDS011;44236;48.098;11.582;2023-10-09T13:56:35;14.02;;;4.28;;
41643;SDS011;44236;48.098;11.582;2023-10-09T13:59:04;14.98;;;4.85;;
41643;SDS011;44236;48.098;11.582;2023-10-09T14:04:04;15.60;;;5.53;;
41643;SDS011;44236;48.098;11.582;2023-10-09T14:06:33;17.00;;;4.32;;
41643;SDS011;44236;48.098;11.582;2023-10-09T14:09:01;9.48;;;3.30;;
41643;SDS011;44236;48.098;11.582;2023-10-09T14:11:30;20.63;;;6.07;;
41643;SDS011;44236;48.098;11.582;2023-10-09T14:13:57;20.27;;;5.40;;
41643;SDS011;44236;48.098;11.582;2023-10-09T14:16:26;18.42;;;4.75;;
41643;SDS011;44236;48.098;11.582;2023-10-09T14:18:56;21.48;;;4.68;;
41643;SDS011;44236;48.098;11.582;2023-10-09T14:21:26;21.20;;;5.10;;
41643;SDS011;44236;48.098;11.582;2023-10-09T14:23:58;25.73;;;6.88;;
41643;SDS011;44236;48.098;11.582;2023-10-09T14:26:28;18.58;;;4.20;;
41643;SDS011;44236;48.098;11.582;2023-10-09T14:28:54;24.48;;;5.93;;
41643;SDS011;44236;48.098;11.582;2023-10-09T14:31:24;17.92;;;4.97;;
41643;SDS011;44236;48.098;11.582;2023-10-09T14:33:54;22.35;;;5.00;;
41643;SDS011;44236;48.098;11.582;2023-10-09T14:36:20;17.60;;;5.03;;
41643;SDS011;44236;48.098;11.582;2023-10-09T14:38:50;23.70;;;5.75;;
41643;SDS011;44236;48.098;11.582;2023-10-09T14:41:21;20.05;;;5.95;;
41643;SDS011;44236;48.098;11.582;2023-10-09T14:43:52;17.05;;;4.30;;
41643;SDS011;44236;48.098;11.582;2023-10-09T14:46:18;19.77;;;5.45;;
41643;SDS011;44236;48.098;11.582;2023-10-09T14:48:54;35.45;;;5.85;;
41643;SDS011;44236;48.098;11.582;2023-10-09T14:51:21;20.33;;;5.75;;
41643;SDS011;44236;48.098;11.582;2023-10-09T14:53:56;30.17;;;6.47;;
41643;SDS011;44236;48.098;11.582;2023-10-09T14:56:28;28.55;;;5.30;;
41643;SDS011;44236;48.098;11.582;2023-10-09T14:58:57;23.23;;;6.25;;
41643;SDS011;44236;48.098;11.582;2023-10-09T15:01:24;17.92;;;4.75;;
41643;SDS011;44236;48.098;11.582;2023-10-09T15:03:58;24.88;;;7.40;;
41643;SDS011;44236;48.098;11.582;2023-10-09T15:06:39;23.58;;;6.10;;
41643;SDS011;44236;48.098;11.582;2023-10-09T15:09:05;25.42;;;5.88;;
41643;SDS011;44236;48.098;11.582;2023-10-09T15:11:34;24.23;;;5.15;;
41643;SDS011;44236;48.098;11.582;2023-10-09T15:14:04;22.02;;;4.43;;
41643;SDS011;44236;48.098;11.582;2023-10-09T15:16:31;37.10;;;8.60;;
41643;SDS011;44236;48.098;11.582;2023-10-09T15:18:56;32.70;;;6.03;;
41643;SDS011;44236;48.098;11.582;2023-10-09T15:21:23;15.30;;;5.45;;
41643;SDS011;44236;48.098;11.582;2023-10-09T15:23:52;30.13;;;6.65;;
41643;SDS011;44236;48.098;11.582;2023-10-09T15:26:19;16.23;;;4.22;;
41643;SDS011;44236;48.098;11.582;2023-10-09T15:28:46;25.35;;;4.80;;
41643;SDS011;44236;48.098;11.582;2023-10-09T15:31:14;26.02;;;4.95;;
41643;SDS011;44236;48.098;11.582;2023-10-09T15:33:42;20.45;;;4.70;;
41643;SDS011;44236;48.098;11.582;2023-10-09T15:36:15;26.92;;;5.50;;
41643;SDS011;44236;48.098;11.582;2023-10-09T15:38:46;20.40;;;4.28;;
41643;SDS011;44236;48.098;11.582;2023-10-09T15:41:13;42.10;;;7.85;;
41643;SDS011;44236;48.098;11.582;2023-10-09T15:43:40;23.10;;;5.65;;